• Join FlightAware (Why Join?)
  • Login
  • US Flag 
11:16PM EST


 

Airport Tracker/Info


-or-


 

Live Flight TrackerFlight Track Log ✈ UAL582 ✈ 30-Aug-2013 ✈ KIND - KORD

Flight Track Log - Related Links

Times and Time Zones

All times are in EDT time to prevent confusion due to time zone crossing. See the UAL582 flight status page for this flight to view local times or setup timezone preferences in your user account.

Time Position Orientation Groundspeed Altitude Reporting Facility
EDT Latitude Longitude Course Direction KTS MPH feet Rate Location/Type
10:41PM 39.7167 -86.3167 44° Northeast 167 192 1,200  Level Indianapolis TRACON
10:42PM 39.6833 -86.3500 218° Southwest 186 214 2,800 2,211 Climbing Indianapolis TRACON
10:43PM 39.6333 -86.4167 226° Southwest 233 268 5,400 2,416 Climbing Indianapolis TRACON
10:45PM 39.6689 -86.5150 295° West 274 315 8,800 2,400 Climbing Indianapolis Center
10:46PM 39.7475 -86.4700 24° Northeast 304 350 11,400 2,016 Climbing Indianapolis Center
10:47PM 40.1259 -86.1239 44° Northeast  Level FlightAware Approximate
10:47PM 39.8383 -86.3878 35° Northeast 386 444 12,900  Level Indianapolis Center
10:48PM 39.9436 -86.3186 27° Northeast 411 473 15,900 2,803 Climbing Indianapolis Center
10:49PM 40.0319 -86.3089 North 331 381 18,600 2,361 Climbing Indianapolis Center
10:50PM 40.1361 -86.3222 354° North 374 430 20,700 1,180 Climbing Indianapolis Center
10:51PM 40.2486 -86.2931 11° North 415 478 21,000 148 Climbing Indianapolis Center
10:52PM 40.3650 -86.2461 17° North 436 502 21,000  Level Indianapolis Center
10:53PM 40.4700 -86.3128 334° Northwest 425 489 21,000  Level Indianapolis Center
10:54PM 40.5692 -86.3922 329° Northwest 421 484 21,000  Level Indianapolis Center
10:55PM 40.6631 -86.4667 329° Northwest 402 463 21,000 -49 Level Indianapolis Center
10:56PM 40.7519 -86.5369 329° Northwest 378 435 20,900 -934 Descending Indianapolis Center
10:57PM 40.8544 -86.6203 328° Northwest 365 420 19,100 -2,000 Descending Indianapolis Center
10:58PM 40.9358 -86.6847 329° Northwest 348 400 16,800 -1,561 Descending Indianapolis Center
10:59PM 41.0139 -86.7483 328° Northwest 333 383 15,900 -1,180 Descending Indianapolis Center
11:00PM 41.0839 -86.8044 329° Northwest 304 350 14,400 -1,721 Descending Indianapolis Center
11:01PM 41.1528 -86.8606 328° Northwest 295 339 12,400 -1,672 Descending Indianapolis Center
11:02PM 41.2261 -86.9194 329° Northwest 300 345 11,000 -632 Descending Indianapolis Center
11:03PM 41.3086 -86.9883 328° Northwest 291 335 11,000  Level Chicago Center
11:04PM 41.3806 -87.0497 327° Northwest 299 344 11,000  Level Chicago Center
11:05PM 41.4567 -87.1108 329° Northwest 318 366 11,000  Level Chicago Center
11:06PM 41.5272 -87.1739 326° Northwest 311 358 11,000  Level Chicago Center
11:07PM 41.5911 -87.2789 309° West 307 353 11,000 -49 Level Chicago Center
11:08PM 41.6444 -87.3639 310° West 304 350 10,900 -541 Descending Chicago Center
11:09PM 41.6967 -87.4467 310° West 295 339 9,900 -443 Descending Chicago Center
11:10PM 41.7500 -87.5319 310° West 300 345 10,000 49 Climbing Chicago Center
11:11PM 41.8031 -87.6186 309° West 303 349 10,000 -98 Level Chicago Center
11:12PM 41.8428 -87.7097 300° West 297 342 9,800 -780 Descending Chicago Center
11:13PM 41.8614 -87.8100 284° West 279 321 8,400 -1,424 Descending Chicago Center
11:14PM 41.8833 -87.9167 285° West 278 320 7,000 -878 Descending Chicago TRACON
11:15PM 41.8833 -88.0333 270° West 275 316 6,600 -1,000 Descending Chicago TRACON
11:16PM 41.9000 -88.1333 283° West 264 304 4,900 -1,263 Descending Chicago TRACON
11:17PM 41.9500 -88.1333 360° North 244 281 4,200 -585 Descending Chicago TRACON
11:18PM 41.9669 -88.0672 71° East 215 247 3,700 -831 Descending Chicago Center
11:19PM 41.9647 -88.0061 93° East 185 213 2,400 -1,405 Descending Chicago Center
11:20PM 41.9667 -87.9500 87° East 138 159 1,100 -1,560 Descending Chicago TRACON